• Join FlightAware (Why Join?)
  • Login
  • US Flag 
02:37AM EDT


 

Airport Tracker/Info


-or-


 

Live Flight TrackerFlight Track Log ✈ N53NW ✈ 07-May-2013 ✈ KATL - KMIE

Flight Track Log - Related Links

Times and Time Zones

All times are in EDT time to prevent confusion due to time zone crossing. See the N53NW flight status page for this flight to view local times or setup timezone preferences in your user account.

Time Position Orientation Groundspeed Altitude Reporting Facility
EDT Latitude Longitude Course Direction KTS MPH feet Rate Location/Type
03:42PM 33.6500 -84.4833 349° North 222 255 4,800  Level Atlanta TRACON
03:43PM 33.6667 -84.5667 284° West 257 296 8,600 2,040 Climbing Atlanta TRACON
03:44PM 33.7658 -84.6136 339° North 260 299 10,000 840 Climbing Atlanta Center
03:45PM 33.8431 -84.6192 357° North 266 306 10,800 1,740 Climbing Atlanta Center
03:46PM 33.9222 -84.6247 357° North 281 323 13,500 2,760 Climbing Atlanta Center
03:47PM 34.0614 -84.5281 349° North  Level FlightAware Approximate
03:47PM 34.0119 -84.6303 357° North 286 329 16,400  Level Atlanta Center
03:48PM 34.0956 -84.6308 360° North 292 336 19,000 2,580 Climbing Atlanta Center
03:49PM 34.1872 -84.6389 356° North 312 359 21,600 2,400 Climbing Atlanta Center
03:50PM 34.2750 -84.6497 354° North 312 359 23,900 2,100 Climbing Atlanta Center
03:51PM 34.3686 -84.6631 353° North 318 366 25,900 1,980 Climbing Atlanta Center
03:52PM 34.4647 -84.6711 356° North 337 388 27,900 1,800 Climbing Atlanta Center
03:53PM 34.5481 -84.6819 354° North 343 395 29,600 1,920 Climbing Atlanta Center
03:54PM 34.6442 -84.6903 356° North 349 402 31,800 2,100 Climbing Atlanta Center
03:55PM 34.7464 -84.7036 354° North 338 389 33,800 1,080 Climbing Atlanta Center
03:56PM 34.8483 -84.7169 354° North 338 389 34,000 60 Climbing Atlanta Center
03:57PM 34.9506 -84.7306 354° North 360 414 34,000  Level Atlanta Center
03:58PM 35.0550 -84.7417 355° North 366 421 34,000  Level Atlanta Center
03:59PM 35.1569 -84.7525 355° North 366 421 34,000  Level Atlanta Center
04:00PM 35.2633 -84.7664 354° North 371 427 34,000  Level Atlanta Center
04:01PM 35.3697 -84.7772 355° North 371 427 34,000 480 Level Atlanta Center
04:02PM 35.4739 -84.7911 354° North 371 427 35,000 1,200 Climbing Atlanta Center
04:03PM 35.5761 -84.8022 355° North 365 420 36,400 1,440 Climbing Atlanta Center
04:04PM 35.6761 -84.8133 355° North 365 420 37,900 1,140 Climbing Atlanta Center
04:05PM 35.7617 -84.8244 354° North 365 420 38,700 660 Climbing Atlanta Center
04:08PM 35.9967 -84.8517 355° North 377 434 40,000 360 Climbing Indianapolis Center
04:09PM 36.1061 -84.8650 354° North 394 453 40,000  Level Indianapolis Center
04:10PM 36.2156 -84.8778 355° North 395 455 40,000  Level Indianapolis Center
04:11PM 36.3258 -84.8919 354° North 398 458 40,000  Level Indianapolis Center
04:12PM 36.4375 -84.9053 355° North 401 461 40,000  Level Indianapolis Center
04:13PM 36.5492 -84.9192 354° North 402 463 40,000  Level Indianapolis Center
04:14PM 36.6836 -84.9361 354° North 404 465 40,000  Level Indianapolis Center
04:15PM 36.7947 -84.9506 354° North 403 464 40,000  Level Indianapolis Center
04:16PM 36.9072 -84.9636 355° North 404 465 40,000  Level Indianapolis Center
04:17PM 37.0186 -84.9781 354° North 403 464 40,000  Level Indianapolis Center
04:18PM 37.1400 -84.9942 354° North 403 464 40,000  Level Indianapolis Center
04:19PM 37.2531 -85.0069 355° North 404 465 40,000  Level Indianapolis Center
04:20PM 37.3642 -85.0214 354° North 400 460 40,000  Level Indianapolis Center
04:21PM 37.4722 -85.0344 355° North 390 449 40,000  Level Indianapolis Center
04:22PM 37.5969 -85.0503 354° North 385 443 40,000  Level Indianapolis Center
04:23PM 37.7033 -85.0642 354° North 383 441 40,000 -300 Level Indianapolis Center
04:24PM 37.8100 -85.0775 354° North 384 442 39,500 -900 Descending Indianapolis Center
04:25PM 37.9197 -85.0903 355° North 391 450 38,200 -1,260 Descending Indianapolis Center
04:26PM 38.0267 -85.1036 354° North 386 444 37,000 -1,140 Descending Indianapolis Center
04:27PM 38.1317 -85.1181 354° North 380 437 35,900 -1,260 Descending Indianapolis Center
04:28PM 38.2567 -85.1336 354° North 384 442 34,400 -1,320 Descending Indianapolis Center
04:29PM 38.3647 -85.1467 355° North 387 445 33,200 -1,140 Descending Indianapolis Center
04:30PM 38.4744 -85.1617 354° North 394 453 32,100 -1,440 Descending Indianapolis Center
04:31PM 38.5867 -85.1761 354° North 402 463 30,300 -1,800 Descending Indianapolis Center
04:32PM 38.6964 -85.1897 354° North 402 463 28,500 -1,740 Descending Indianapolis Center
04:33PM 38.8050 -85.2028 355° North 396 456 26,700 -1,920 Descending Indianapolis Center
04:34PM 38.9319 -85.2200 354° North 385 443 24,600 -1,920 Descending Indianapolis Center
04:35PM 39.0342 -85.2325 355° North 375 432 22,800 -1,800 Descending Indianapolis Center
04:37PM 39.1322 -85.2467 354° North 360 414 21,000 -1,800 Descending Indianapolis Center
04:38PM 39.2281 -85.2714 349° North 353 406 19,100 -2,040 Descending Indianapolis Center
04:39PM 39.3208 -85.3061 344° North 351 404 16,900 -2,400 Descending Indianapolis Center
04:40PM 39.4258 -85.3447 344° North 332 382 14,200 -1,440 Descending Indianapolis Center
04:41PM 39.5053 -85.3656 349° North 298 343 14,000 -180 Descending Indianapolis Center
04:42PM 39.5864 -85.3689 358° North 292 336 13,900 -1,200 Descending Indianapolis Center
04:43PM 39.6697 -85.3717 359° North 299 344 11,600 -1,920 Descending Indianapolis Center
04:44PM 39.7475 -85.3756 358° North 286 329 10,000 -1,800 Descending Indianapolis Center
04:45PM 39.8297 -85.3789 358° North 258 297 7,900 -2,400 Descending Indianapolis Center
04:46PM 39.8994 -85.3828 358° North 252 290 5,100 -2,400 Descending Indianapolis Center
04:47PM 39.9700 -85.3842 359° North 254 292 3,000 -1,020 Descending Indianapolis Center
04:48PM 40.0342 -85.3886 357° North 247 284 3,000  Level Indianapolis Center
04:49PM 40.0956 -85.3914 358° North 236 272 3,000 -300 Level Indianapolis Center
04:50PM 40.1514 -85.4019 352° North 221 254 2,400 -540 Descending Indianapolis Center
04:51PM 40.1997 -85.4172 346° North 197 227 1,900 -540 Descending Indianapolis Center